sensor_id;sensor_type;location;lat;lon;timestamp;P1;durP1;ratioP1;P2;durP2;ratioP2
47329;SDS011;33060;50.178;7.570;2023-08-31T00:01:03;11.93;;;6.32;;
47329;SDS011;33060;50.178;7.570;2023-08-31T00:03:31;11.60;;;6.38;;
47329;SDS011;33060;50.178;7.570;2023-08-31T00:06:00;12.80;;;6.70;;
47329;SDS011;33060;50.178;7.570;2023-08-31T00:08:28;10.93;;;6.47;;
47329;SDS011;33060;50.178;7.570;2023-08-31T00:13:22;11.95;;;6.75;;
47329;SDS011;33060;50.178;7.570;2023-08-31T00:15:50;11.77;;;6.85;;
47329;SDS011;33060;50.178;7.570;2023-08-31T00:20:44;10.52;;;5.45;;
47329;SDS011;33060;50.178;7.570;2023-08-31T00:25:38;10.55;;;5.95;;
47329;SDS011;33060;50.178;7.570;2023-08-31T00:28:05;12.60;;;6.30;;
47329;SDS011;33060;50.178;7.570;2023-08-31T00:32:58;14.25;;;7.95;;
47329;SDS011;33060;50.178;7.570;2023-08-31T00:35:28;13.75;;;7.55;;
47329;SDS011;33060;50.178;7.570;2023-08-31T00:37:56;11.23;;;6.30;;
47329;SDS011;33060;50.178;7.570;2023-08-31T00:40:25;12.38;;;7.45;;
47329;SDS011;33060;50.178;7.570;2023-08-31T00:42:52;11.88;;;7.03;;
47329;SDS011;33060;50.178;7.570;2023-08-31T00:47:46;13.82;;;7.53;;
47329;SDS011;33060;50.178;7.570;2023-08-31T00:50:16;12.73;;;7.07;;
47329;SDS011;33060;50.178;7.570;2023-08-31T00:52:43;14.18;;;7.47;;
47329;SDS011;33060;50.178;7.570;2023-08-31T00:55:14;12.30;;;6.65;;
47329;SDS011;33060;50.178;7.570;2023-08-31T00:57:44;10.77;;;6.60;;
47329;SDS011;33060;50.178;7.570;2023-08-31T01:00:13;13.75;;;7.35;;
47329;SDS011;33060;50.178;7.570;2023-08-31T01:05:25;13.98;;;7.82;;
47329;SDS011;33060;50.178;7.570;2023-08-31T01:08:37;13.60;;;8.15;;
47329;SDS011;33060;50.178;7.570;2023-08-31T01:14:02;15.82;;;8.10;;
47329;SDS011;33060;50.178;7.570;2023-08-31T01:16:38;13.95;;;7.43;;
47329;SDS011;33060;50.178;7.570;2023-08-31T01:19:11;10.95;;;6.40;;
47329;SDS011;33060;50.178;7.570;2023-08-31T01:21:52;15.38;;;6.82;;
47329;SDS011;33060;50.178;7.570;2023-08-31T01:24:24;11.02;;;6.80;;
47329;SDS011;33060;50.178;7.570;2023-08-31T01:26:52;10.45;;;6.55;;
47329;SDS011;33060;50.178;7.570;2023-08-31T01:29:19;14.00;;;6.97;;
47329;SDS011;33060;50.178;7.570;2023-08-31T01:31:46;13.32;;;7.88;;
47329;SDS011;33060;50.178;7.570;2023-08-31T01:34:13;13.50;;;7.50;;
47329;SDS011;33060;50.178;7.570;2023-08-31T01:36:42;9.45;;;6.13;;
47329;SDS011;33060;50.178;7.570;2023-08-31T01:41:40;11.75;;;7.40;;
47329;SDS011;33060;50.178;7.570;2023-08-31T01:44:13;12.02;;;7.13;;
47329;SDS011;33060;50.178;7.570;2023-08-31T01:46:45;13.48;;;7.55;;
47329;SDS011;33060;50.178;7.570;2023-08-31T01:49:12;12.50;;;7.20;;
47329;SDS011;33060;50.178;7.570;2023-08-31T01:51:40;13.68;;;7.18;;
47329;SDS011;33060;50.178;7.570;2023-08-31T01:56:34;13.77;;;6.65;;
47329;SDS011;33060;50.178;7.570;2023-08-31T01:59:00;11.88;;;6.53;;
47329;SDS011;33060;50.178;7.570;2023-08-31T02:03:55;9.63;;;5.68;;
47329;SDS011;33060;50.178;7.570;2023-08-31T02:06:22;7.85;;;5.43;;
47329;SDS011;33060;50.178;7.570;2023-08-31T02:08:49;10.30;;;5.43;;
47329;SDS011;33060;50.178;7.570;2023-08-31T02:11:17;9.10;;;5.22;;
47329;SDS011;33060;50.178;7.570;2023-08-31T02:16:10;6.65;;;4.38;;
47329;SDS011;33060;50.178;7.570;2023-08-31T02:18:37;9.85;;;5.00;;
47329;SDS011;33060;50.178;7.570;2023-08-31T02:23:33;8.57;;;4.35;;
47329;SDS011;33060;50.178;7.570;2023-08-31T02:26:01;9.23;;;4.43;;
47329;SDS011;33060;50.178;7.570;2023-08-31T02:31:00;9.98;;;3.95;;
47329;SDS011;33060;50.178;7.570;2023-08-31T02:33:29;7.18;;;3.33;;
47329;SDS011;33060;50.178;7.570;2023-08-31T02:38:23;6.90;;;3.03;;
47329;SDS011;33060;50.178;7.570;2023-08-31T02:40:50;6.03;;;3.38;;
47329;SDS011;33060;50.178;7.570;2023-08-31T02:45:43;6.30;;;3.30;;
47329;SDS011;33060;50.178;7.570;2023-08-31T02:50:37;5.38;;;3.08;;
47329;SDS011;33060;50.178;7.570;2023-08-31T02:53:04;7.03;;;3.13;;
47329;SDS011;33060;50.178;7.570;2023-08-31T02:55:32;6.25;;;3.75;;
47329;SDS011;33060;50.178;7.570;2023-08-31T02:57:59;5.20;;;3.42;;
47329;SDS011;33060;50.178;7.570;2023-08-31T03:00:27;6.43;;;3.35;;
47329;SDS011;33060;50.178;7.570;2023-08-31T03:02:54;6.15;;;3.65;;
47329;SDS011;33060;50.178;7.570;2023-08-31T03:05:22;8.55;;;3.50;;
47329;SDS011;33060;50.178;7.570;2023-08-31T03:10:16;6.22;;;3.20;;
47329;SDS011;33060;50.178;7.570;2023-08-31T03:12:43;8.13;;;3.78;;
47329;SDS011;33060;50.178;7.570;2023-08-31T03:17:37;6.95;;;2.92;;
47329;SDS011;33060;50.178;7.570;2023-08-31T03:20:04;5.63;;;2.85;;
47329;SDS011;33060;50.178;7.570;2023-08-31T03:22:32;6.10;;;3.38;;
47329;SDS011;33060;50.178;7.570;2023-08-31T03:27:26;5.82;;;3.38;;
47329;SDS011;33060;50.178;7.570;2023-08-31T03:29:52;9.07;;;3.50;;
47329;SDS011;33060;50.178;7.570;2023-08-31T03:32:19;8.43;;;3.63;;
47329;SDS011;33060;50.178;7.570;2023-08-31T03:34:46;6.43;;;3.55;;
47329;SDS011;33060;50.178;7.570;2023-08-31T03:39:39;7.45;;;3.13;;
47329;SDS011;33060;50.178;7.570;2023-08-31T03:42:08;6.03;;;3.67;;
47329;SDS011;33060;50.178;7.570;2023-08-31T03:44:35;9.20;;;3.20;;
47329;SDS011;33060;50.178;7.570;2023-08-31T03:47:03;6.57;;;3.60;;
47329;SDS011;33060;50.178;7.570;2023-08-31T03:49:30;8.57;;;3.97;;
47329;SDS011;33060;50.178;7.570;2023-08-31T03:51:58;9.07;;;3.53;;
47329;SDS011;33060;50.178;7.570;2023-08-31T03:54:26;8.30;;;3.40;;
47329;SDS011;33060;50.178;7.570;2023-08-31T03:56:53;8.70;;;3.85;;
47329;SDS011;33060;50.178;7.570;2023-08-31T04:01:46;8.82;;;3.33;;
47329;SDS011;33060;50.178;7.570;2023-08-31T04:04:13;5.22;;;2.67;;
47329;SDS011;33060;50.178;7.570;2023-08-31T04:09:07;8.00;;;3.75;;
47329;SDS011;33060;50.178;7.570;2023-08-31T04:11:34;7.40;;;3.70;;
47329;SDS011;33060;50.178;7.570;2023-08-31T04:14:02;6.63;;;3.33;;
47329;SDS011;33060;50.178;7.570;2023-08-31T04:18:55;6.88;;;3.13;;
47329;SDS011;33060;50.178;7.570;2023-08-31T04:21:22;8.82;;;4.07;;
47329;SDS011;33060;50.178;7.570;2023-08-31T04:26:15;9.02;;;3.65;;
47329;SDS011;33060;50.178;7.570;2023-08-31T04:28:43;8.90;;;4.15;;
47329;SDS011;33060;50.178;7.570;2023-08-31T04:31:10;6.53;;;3.85;;
47329;SDS011;33060;50.178;7.570;2023-08-31T04:33:38;7.53;;;3.50;;
47329;SDS011;33060;50.178;7.570;2023-08-31T04:36:05;7.38;;;3.33;;
47329;SDS011;33060;50.178;7.570;2023-08-31T04:38:33;8.52;;;4.47;;
47329;SDS011;33060;50.178;7.570;2023-08-31T04:41:00;5.97;;;2.95;;
47329;SDS011;33060;50.178;7.570;2023-08-31T04:43:27;6.75;;;3.97;;
47329;SDS011;33060;50.178;7.570;2023-08-31T04:48:21;9.18;;;2.97;;
47329;SDS011;33060;50.178;7.570;2023-08-31T04:50:48;8.25;;;3.92;;
47329;SDS011;33060;50.178;7.570;2023-08-31T04:53:15;7.70;;;3.92;;
47329;SDS011;33060;50.178;7.570;2023-08-31T04:58:08;10.40;;;4.30;;
47329;SDS011;33060;50.178;7.570;2023-08-31T05:03:01;8.20;;;3.25;;
47329;SDS011;33060;50.178;7.570;2023-08-31T05:05:29;8.50;;;4.15;;
47329;SDS011;33060;50.178;7.570;2023-08-31T05:07:58;9.13;;;4.40;;
47329;SDS011;33060;50.178;7.570;2023-08-31T05:10:25;7.45;;;4.15;;
47329;SDS011;33060;50.178;7.570;2023-08-31T05:15:18;7.55;;;3.85;;
47329;SDS011;33060;50.178;7.570;2023-08-31T05:17:45;9.73;;;4.85;;
47329;SDS011;33060;50.178;7.570;2023-08-31T05:20:12;7.32;;;4.30;;
47329;SDS011;33060;50.178;7.570;2023-08-31T05:22:39;12.55;;;4.38;;
47329;SDS011;33060;50.178;7.570;2023-08-31T05:25:06;10.85;;;4.18;;
47329;SDS011;33060;50.178;7.570;2023-08-31T05:27:33;8.10;;;3.65;;
47329;SDS011;33060;50.178;7.570;2023-08-31T05:32:29;7.28;;;3.80;;
47329;SDS011;33060;50.178;7.570;2023-08-31T05:34:56;8.13;;;4.35;;
47329;SDS011;33060;50.178;7.570;2023-08-31T05:37:24;12.18;;;4.60;;
47329;SDS011;33060;50.178;7.570;2023-08-31T05:39:51;7.30;;;3.55;;
47329;SDS011;33060;50.178;7.570;2023-08-31T05:44:45;7.95;;;3.78;;
47329;SDS011;33060;50.178;7.570;2023-08-31T05:47:11;6.68;;;3.45;;
47329;SDS011;33060;50.178;7.570;2023-08-31T05:52:04;11.82;;;4.55;;
47329;SDS011;33060;50.178;7.570;2023-08-31T05:54:32;10.68;;;4.15;;
47329;SDS011;33060;50.178;7.570;2023-08-31T05:56:58;5.65;;;3.03;;
47329;SDS011;33060;50.178;7.570;2023-08-31T06:01:52;7.63;;;3.25;;
47329;SDS011;33060;50.178;7.570;2023-08-31T06:04:22;8.88;;;3.25;;
47329;SDS011;33060;50.178;7.570;2023-08-31T06:06:48;7.10;;;3.35;;
47329;SDS011;33060;50.178;7.570;2023-08-31T06:09:18;6.93;;;3.53;;
47329;SDS011;33060;50.178;7.570;2023-08-31T06:14:11;6.35;;;3.67;;
47329;SDS011;33060;50.178;7.570;2023-08-31T06:19:05;8.32;;;3.53;;
47329;SDS011;33060;50.178;7.570;2023-08-31T06:23:58;5.97;;;3.00;;
47329;SDS011;33060;50.178;7.570;2023-08-31T06:28:52;5.97;;;3.95;;
47329;SDS011;33060;50.178;7.570;2023-08-31T06:31:19;8.43;;;3.22;;
47329;SDS011;33060;50.178;7.570;2023-08-31T06:33:45;7.55;;;4.30;;
47329;SDS011;33060;50.178;7.570;2023-08-31T06:38:39;6.55;;;3.75;;
47329;SDS011;33060;50.178;7.570;2023-08-31T06:43:32;7.43;;;3.33;;
47329;SDS011;33060;50.178;7.570;2023-08-31T06:48:43;6.50;;;3.10;;
47329;SDS011;33060;50.178;7.570;2023-08-31T06:53:36;7.35;;;3.28;;
47329;SDS011;33060;50.178;7.570;2023-08-31T06:56:03;9.32;;;4.30;;
47329;SDS011;33060;50.178;7.570;2023-08-31T06:58:30;7.00;;;4.10;;
47329;SDS011;33060;50.178;7.570;2023-08-31T07:00:57;8.82;;;4.80;;
47329;SDS011;33060;50.178;7.570;2023-08-31T07:03:24;8.45;;;4.25;;
47329;SDS011;33060;50.178;7.570;2023-08-31T07:05:53;8.07;;;3.92;;
47329;SDS011;33060;50.178;7.570;2023-08-31T07:08:20;8.75;;;4.10;;
47329;SDS011;33060;50.178;7.570;2023-08-31T07:13:17;7.07;;;3.60;;
47329;SDS011;33060;50.178;7.570;2023-08-31T07:15:43;5.82;;;3.53;;
47329;SDS011;33060;50.178;7.570;2023-08-31T07:20:36;8.38;;;3.40;;
47329;SDS011;33060;50.178;7.570;2023-08-31T07:23:03;6.30;;;3.63;;
47329;SDS011;33060;50.178;7.570;2023-08-31T07:25:30;9.13;;;3.75;;
47329;SDS011;33060;50.178;7.570;2023-08-31T07:30:23;7.97;;;3.03;;
47329;SDS011;33060;50.178;7.570;2023-08-31T07:35:17;5.60;;;3.55;;
47329;SDS011;33060;50.178;7.570;2023-08-31T07:37:43;7.63;;;3.80;;
47329;SDS011;33060;50.178;7.570;2023-08-31T07:42:37;5.47;;;2.92;;
47329;SDS011;33060;50.178;7.570;2023-08-31T07:45:04;8.27;;;3.75;;
47329;SDS011;33060;50.178;7.570;2023-08-31T07:47:31;12.43;;;3.72;;
47329;SDS011;33060;50.178;7.570;2023-08-31T07:50:00;9.25;;;3.45;;
47329;SDS011;33060;50.178;7.570;2023-08-31T07:52:27;6.28;;;3.45;;
47329;SDS011;33060;50.178;7.570;2023-08-31T07:54:54;6.72;;;3.20;;
47329;SDS011;33060;50.178;7.570;2023-08-31T07:57:21;6.45;;;3.30;;
47329;SDS011;33060;50.178;7.570;2023-08-31T07:59:48;7.05;;;3.58;;
47329;SDS011;33060;50.178;7.570;2023-08-31T08:02:15;6.85;;;3.22;;
47329;SDS011;33060;50.178;7.570;2023-08-31T08:04:51;8.23;;;3.92;;
47329;SDS011;33060;50.178;7.570;2023-08-31T08:07:18;7.10;;;2.97;;
47329;SDS011;33060;50.178;7.570;2023-08-31T08:12:11;8.65;;;4.57;;
47329;SDS011;33060;50.178;7.570;2023-08-31T08:14:38;6.72;;;2.83;;
47329;SDS011;33060;50.178;7.570;2023-08-31T08:17:04;7.93;;;3.00;;
47329;SDS011;33060;50.178;7.570;2023-08-31T08:21:58;6.28;;;2.75;;
47329;SDS011;33060;50.178;7.570;2023-08-31T08:26:51;4.43;;;2.80;;
47329;SDS011;33060;50.178;7.570;2023-08-31T08:29:17;8.05;;;2.65;;
47329;SDS011;33060;50.178;7.570;2023-08-31T08:31:44;6.43;;;3.78;;
47329;SDS011;33060;50.178;7.570;2023-08-31T08:34:11;7.00;;;2.60;;
47329;SDS011;33060;50.178;7.570;2023-08-31T08:36:38;4.07;;;2.60;;
47329;SDS011;33060;50.178;7.570;2023-08-31T08:39:05;8.77;;;2.60;;
47329;SDS011;33060;50.178;7.570;2023-08-31T08:41:32;4.95;;;2.45;;
47329;SDS011;33060;50.178;7.570;2023-08-31T08:44:01;6.13;;;2.38;;
47329;SDS011;33060;50.178;7.570;2023-08-31T08:46:30;4.90;;;1.70;;
47329;SDS011;33060;50.178;7.570;2023-08-31T08:48:59;6.65;;;3.20;;
47329;SDS011;33060;50.178;7.570;2023-08-31T08:51:29;6.93;;;2.40;;
47329;SDS011;33060;50.178;7.570;2023-08-31T08:53:59;8.95;;;2.83;;
47329;SDS011;33060;50.178;7.570;2023-08-31T08:56:26;5.75;;;2.15;;
47329;SDS011;33060;50.178;7.570;2023-08-31T08:58:53;4.20;;;1.95;;
47329;SDS011;33060;50.178;7.570;2023-08-31T09:01:21;6.78;;;2.85;;
47329;SDS011;33060;50.178;7.570;2023-08-31T09:03:49;5.38;;;2.70;;
47329;SDS011;33060;50.178;7.570;2023-08-31T09:06:16;5.13;;;2.40;;
47329;SDS011;33060;50.178;7.570;2023-08-31T09:08:43;7.45;;;2.70;;
47329;SDS011;33060;50.178;7.570;2023-08-31T09:11:13;5.97;;;2.38;;
47329;SDS011;33060;50.178;7.570;2023-08-31T09:13:47;7.82;;;2.67;;
47329;SDS011;33060;50.178;7.570;2023-08-31T09:16:27;7.07;;;2.53;;
47329;SDS011;33060;50.178;7.570;2023-08-31T09:18:56;9.05;;;3.42;;
47329;SDS011;33060;50.178;7.570;2023-08-31T09:21:35;5.80;;;2.97;;
47329;SDS011;33060;50.178;7.570;2023-08-31T09:24:06;3.90;;;2.47;;
47329;SDS011;33060;50.178;7.570;2023-08-31T09:26:43;5.95;;;2.72;;
47329;SDS011;33060;50.178;7.570;2023-08-31T09:29:21;6.90;;;2.85;;
47329;SDS011;33060;50.178;7.570;2023-08-31T09:31:48;5.20;;;2.55;;
47329;SDS011;33060;50.178;7.570;2023-08-31T09:34:16;5.65;;;2.85;;
47329;SDS011;33060;50.178;7.570;2023-08-31T09:36:44;7.43;;;2.35;;
47329;SDS011;33060;50.178;7.570;2023-08-31T09:39:12;6.35;;;3.15;;
47329;SDS011;33060;50.178;7.570;2023-08-31T09:41:55;5.40;;;2.45;;
47329;SDS011;33060;50.178;7.570;2023-08-31T09:44:22;6.90;;;2.40;;
47329;SDS011;33060;50.178;7.570;2023-08-31T09:46:49;7.88;;;2.30;;
47329;SDS011;33060;50.178;7.570;2023-08-31T09:49:16;4.90;;;2.33;;
47329;SDS011;33060;50.178;7.570;2023-08-31T09:51:44;4.47;;;2.30;;
47329;SDS011;33060;50.178;7.570;2023-08-31T09:54:16;6.15;;;2.65;;
47329;SDS011;33060;50.178;7.570;2023-08-31T09:56:44;6.18;;;2.15;;
47329;SDS011;33060;50.178;7.570;2023-08-31T09:59:14;5.85;;;2.60;;
47329;SDS011;33060;50.178;7.570;2023-08-31T10:01:44;6.00;;;2.50;;
47329;SDS011;33060;50.178;7.570;2023-08-31T10:04:13;6.15;;;2.38;;
47329;SDS011;33060;50.178;7.570;2023-08-31T10:06:40;5.30;;;1.88;;
47329;SDS011;33060;50.178;7.570;2023-08-31T10:09:08;4.22;;;2.15;;
47329;SDS011;33060;50.178;7.570;2023-08-31T10:11:36;4.78;;;2.65;;
47329;SDS011;33060;50.178;7.570;2023-08-31T10:14:04;5.47;;;1.70;;
47329;SDS011;33060;50.178;7.570;2023-08-31T10:16:31;4.78;;;2.28;;
47329;SDS011;33060;50.178;7.570;2023-08-31T10:18:58;4.97;;;1.95;;
47329;SDS011;33060;50.178;7.570;2023-08-31T10:21:25;4.72;;;1.92;;
47329;SDS011;33060;50.178;7.570;2023-08-31T10:23:52;4.43;;;2.17;;
47329;SDS011;33060;50.178;7.570;2023-08-31T10:26:23;5.28;;;2.03;;
47329;SDS011;33060;50.178;7.570;2023-08-31T10:28:51;3.90;;;1.67;;
47329;SDS011;33060;50.178;7.570;2023-08-31T10:31:18;5.53;;;2.95;;
47329;SDS011;33060;50.178;7.570;2023-08-31T10:33:56;5.88;;;3.10;;
47329;SDS011;33060;50.178;7.570;2023-08-31T10:36:44;4.70;;;1.65;;
47329;SDS011;33060;50.178;7.570;2023-08-31T10:39:20;3.65;;;1.83;;
47329;SDS011;33060;50.178;7.570;2023-08-31T10:41:54;4.63;;;1.60;;
47329;SDS011;33060;50.178;7.570;2023-08-31T10:44:23;3.85;;;1.42;;
47329;SDS011;33060;50.178;7.570;2023-08-31T10:46:51;3.08;;;1.70;;
47329;SDS011;33060;50.178;7.570;2023-08-31T10:49:19;4.65;;;1.33;;
47329;SDS011;33060;50.178;7.570;2023-08-31T10:51:52;4.68;;;1.75;;
47329;SDS011;33060;50.178;7.570;2023-08-31T10:54:30;4.97;;;1.63;;
47329;SDS011;33060;50.178;7.570;2023-08-31T10:57:02;3.65;;;1.35;;
47329;SDS011;33060;50.178;7.570;2023-08-31T10:59:41;5.50;;;1.70;;
47329;SDS011;33060;50.178;7.570;2023-08-31T11:02:08;3.38;;;1.40;;
47329;SDS011;33060;50.178;7.570;2023-08-31T11:04:55;2.60;;;1.50;;
47329;SDS011;33060;50.178;7.570;2023-08-31T11:07:27;4.68;;;1.90;;
47329;SDS011;33060;50.178;7.570;2023-08-31T11:10:09;6.50;;;1.88;;
47329;SDS011;33060;50.178;7.570;2023-08-31T11:12:55;3.95;;;1.30;;
47329;SDS011;33060;50.178;7.570;2023-08-31T11:15:25;3.50;;;1.70;;
47329;SDS011;33060;50.178;7.570;2023-08-31T11:17:56;4.18;;;1.70;;
47329;SDS011;33060;50.178;7.570;2023-08-31T11:20:23;5.05;;;1.52;;
47329;SDS011;33060;50.178;7.570;2023-08-31T11:22:55;3.05;;;1.73;;
47329;SDS011;33060;50.178;7.570;2023-08-31T11:25:22;5.50;;;2.05;;
47329;SDS011;33060;50.178;7.570;2023-08-31T11:28:02;5.45;;;1.80;;
47329;SDS011;33060;50.178;7.570;2023-08-31T11:30:36;5.85;;;1.55;;
47329;SDS011;33060;50.178;7.570;2023-08-31T11:33:03;3.50;;;1.40;;
47329;SDS011;33060;50.178;7.570;2023-08-31T11:35:35;3.58;;;1.27;;
47329;SDS011;33060;50.178;7.570;2023-08-31T11:38:03;3.15;;;1.33;;
47329;SDS011;33060;50.178;7.570;2023-08-31T11:40:30;4.68;;;1.33;;
47329;SDS011;33060;50.178;7.570;2023-08-31T11:42:57;4.50;;;1.13;;
47329;SDS011;33060;50.178;7.570;2023-08-31T11:45:26;5.03;;;1.52;;
47329;SDS011;33060;50.178;7.570;2023-08-31T11:47:57;4.20;;;1.25;;
47329;SDS011;33060;50.178;7.570;2023-08-31T11:50:24;3.22;;;1.20;;
47329;SDS011;33060;50.178;7.570;2023-08-31T11:52:52;4.75;;;1.27;;
47329;SDS011;33060;50.178;7.570;2023-08-31T11:55:20;3.38;;;1.65;;
47329;SDS011;33060;50.178;7.570;2023-08-31T11:57:50;5.03;;;1.67;;
47329;SDS011;33060;50.178;7.570;2023-08-31T12:00:18;3.97;;;1.83;;
47329;SDS011;33060;50.178;7.570;2023-08-31T12:03:04;3.13;;;1.13;;
47329;SDS011;33060;50.178;7.570;2023-08-31T12:05:44;4.63;;;1.25;;
47329;SDS011;33060;50.178;7.570;2023-08-31T12:08:12;5.07;;;1.45;;
47329;SDS011;33060;50.178;7.570;2023-08-31T12:10:40;2.70;;;1.27;;
47329;SDS011;33060;50.178;7.570;2023-08-31T12:13:11;5.30;;;1.20;;
47329;SDS011;33060;50.178;7.570;2023-08-31T12:15:39;3.92;;;1.02;;
47329;SDS011;33060;50.178;7.570;2023-08-31T12:18:07;2.50;;;1.10;;
47329;SDS011;33060;50.178;7.570;2023-08-31T12:20:46;2.83;;;1.50;;
47329;SDS011;33060;50.178;7.570;2023-08-31T12:23:14;3.72;;;1.33;;
47329;SDS011;33060;50.178;7.570;2023-08-31T12:28:14;3.10;;;1.00;;
47329;SDS011;33060;50.178;7.570;2023-08-31T12:30:42;4.05;;;0.85;;
47329;SDS011;33060;50.178;7.570;2023-08-31T12:33:12;3.80;;;1.20;;
47329;SDS011;33060;50.178;7.570;2023-08-31T12:35:39;5.13;;;1.63;;
47329;SDS011;33060;50.178;7.570;2023-08-31T12:38:06;4.10;;;1.45;;
47329;SDS011;33060;50.178;7.570;2023-08-31T12:40:33;3.28;;;1.17;;
47329;SDS011;33060;50.178;7.570;2023-08-31T12:43:00;4.53;;;1.60;;
47329;SDS011;33060;50.178;7.570;2023-08-31T12:45:26;4.43;;;1.48;;
47329;SDS011;33060;50.178;7.570;2023-08-31T12:47:53;2.75;;;1.48;;
47329;SDS011;33060;50.178;7.570;2023-08-31T12:50:20;4.72;;;1.40;;
47329;SDS011;33060;50.178;7.570;2023-08-31T12:52:47;4.80;;;1.60;;
47329;SDS011;33060;50.178;7.570;2023-08-31T12:55:13;3.42;;;0.88;;
47329;SDS011;33060;50.178;7.570;2023-08-31T12:57:41;7.68;;;1.60;;
47329;SDS011;33060;50.178;7.570;2023-08-31T13:00:09;3.97;;;1.33;;
47329;SDS011;33060;50.178;7.570;2023-08-31T13:02:40;5.60;;;1.23;;
47329;SDS011;33060;50.178;7.570;2023-08-31T13:05:08;3.10;;;1.25;;
47329;SDS011;33060;50.178;7.570;2023-08-31T13:07:36;3.35;;;1.25;;
47329;SDS011;33060;50.178;7.570;2023-08-31T13:10:04;4.63;;;1.17;;
47329;SDS011;33060;50.178;7.570;2023-08-31T13:12:31;5.32;;;1.15;;
47329;SDS011;33060;50.178;7.570;2023-08-31T13:14:58;3.45;;;0.98;;
47329;SDS011;33060;50.178;7.570;2023-08-31T13:17:26;4.45;;;1.50;;
47329;SDS011;33060;50.178;7.570;2023-08-31T13:19:54;4.03;;;1.15;;
47329;SDS011;33060;50.178;7.570;2023-08-31T13:22:23;4.10;;;1.48;;
47329;SDS011;33060;50.178;7.570;2023-08-31T13:24:50;3.15;;;1.25;;
47329;SDS011;33060;50.178;7.570;2023-08-31T13:27:17;3.72;;;0.98;;
47329;SDS011;33060;50.178;7.570;2023-08-31T13:29:44;2.95;;;1.23;;
47329;SDS011;33060;50.178;7.570;2023-08-31T13:32:11;3.67;;;1.40;;
47329;SDS011;33060;50.178;7.570;2023-08-31T13:34:38;5.20;;;1.70;;
47329;SDS011;33060;50.178;7.570;2023-08-31T13:37:04;3.38;;;1.20;;
47329;SDS011;33060;50.178;7.570;2023-08-31T13:39:33;3.05;;;1.13;;
47329;SDS011;33060;50.178;7.570;2023-08-31T13:42:02;4.35;;;1.60;;
47329;SDS011;33060;50.178;7.570;2023-08-31T13:44:30;4.80;;;1.88;;
47329;SDS011;33060;50.178;7.570;2023-08-31T13:46:57;3.90;;;1.40;;
47329;SDS011;33060;50.178;7.570;2023-08-31T13:49:24;5.13;;;1.40;;
47329;SDS011;33060;50.178;7.570;2023-08-31T13:51:51;3.67;;;1.70;;
47329;SDS011;33060;50.178;7.570;2023-08-31T13:54:18;5.25;;;1.58;;
47329;SDS011;33060;50.178;7.570;2023-08-31T13:56:45;3.28;;;1.30;;
47329;SDS011;33060;50.178;7.570;2023-08-31T13:59:11;3.80;;;1.40;;
47329;SDS011;33060;50.178;7.570;2023-08-31T14:01:38;3.75;;;1.15;;
47329;SDS011;33060;50.178;7.570;2023-08-31T14:04:05;3.83;;;1.67;;
47329;SDS011;33060;50.178;7.570;2023-08-31T14:06:32;4.85;;;1.23;;
47329;SDS011;33060;50.178;7.570;2023-08-31T14:08:59;4.32;;;1.60;;
47329;SDS011;33060;50.178;7.570;2023-08-31T14:11:26;5.03;;;0.93;;
47329;SDS011;33060;50.178;7.570;2023-08-31T14:14:03;3.17;;;1.25;;
47329;SDS011;33060;50.178;7.570;2023-08-31T14:16:37;5.10;;;1.25;;
47329;SDS011;33060;50.178;7.570;2023-08-31T14:19:04;4.28;;;1.10;;
47329;SDS011;33060;50.178;7.570;2023-08-31T14:21:32;3.47;;;1.30;;
47329;SDS011;33060;50.178;7.570;2023-08-31T14:23:58;4.47;;;1.30;;
47329;SDS011;33060;50.178;7.570;2023-08-31T14:26:25;5.70;;;1.60;;
47329;SDS011;33060;50.178;7.570;2023-08-31T14:28:52;3.75;;;1.23;;
47329;SDS011;33060;50.178;7.570;2023-08-31T14:31:19;3.80;;;1.20;;
47329;SDS011;33060;50.178;7.570;2023-08-31T14:33:46;3.33;;;1.27;;
47329;SDS011;33060;50.178;7.570;2023-08-31T14:36:13;2.88;;;1.27;;
47329;SDS011;33060;50.178;7.570;2023-08-31T14:38:41;3.97;;;1.75;;
47329;SDS011;33060;50.178;7.570;2023-08-31T14:41:08;4.47;;;1.38;;
47329;SDS011;33060;50.178;7.570;2023-08-31T14:43:35;3.42;;;1.10;;
47329;SDS011;33060;50.178;7.570;2023-08-31T14:46:01;4.82;;;1.50;;
47329;SDS011;33060;50.178;7.570;2023-08-31T14:48:29;3.10;;;1.33;;
47329;SDS011;33060;50.178;7.570;2023-08-31T14:50:56;5.78;;;1.42;;
47329;SDS011;33060;50.178;7.570;2023-08-31T14:53:25;3.72;;;1.45;;
47329;SDS011;33060;50.178;7.570;2023-08-31T14:55:53;4.55;;;1.50;;
47329;SDS011;33060;50.178;7.570;2023-08-31T14:58:19;3.22;;;1.30;;
47329;SDS011;33060;50.178;7.570;2023-08-31T15:00:47;4.47;;;1.77;;
47329;SDS011;33060;50.178;7.570;2023-08-31T15:03:13;4.68;;;1.48;;
47329;SDS011;33060;50.178;7.570;2023-08-31T15:05:50;4.22;;;1.83;;
47329;SDS011;33060;50.178;7.570;2023-08-31T15:08:17;4.15;;;1.63;;
47329;SDS011;33060;50.178;7.570;2023-08-31T15:10:45;4.63;;;1.20;;
47329;SDS011;33060;50.178;7.570;2023-08-31T15:13:12;4.20;;;1.73;;
47329;SDS011;33060;50.178;7.570;2023-08-31T15:15:39;4.18;;;1.60;;
47329;SDS011;33060;50.178;7.570;2023-08-31T15:18:06;5.15;;;1.27;;
47329;SDS011;33060;50.178;7.570;2023-08-31T15:20:33;4.57;;;1.88;;
47329;SDS011;33060;50.178;7.570;2023-08-31T15:23:00;3.67;;;1.42;;
47329;SDS011;33060;50.178;7.570;2023-08-31T15:25:26;5.78;;;1.83;;
47329;SDS011;33060;50.178;7.570;2023-08-31T15:27:53;4.15;;;1.05;;
47329;SDS011;33060;50.178;7.570;2023-08-31T15:30:20;4.47;;;1.75;;
47329;SDS011;33060;50.178;7.570;2023-08-31T15:32:47;4.35;;;1.63;;
47329;SDS011;33060;50.178;7.570;2023-08-31T15:35:13;4.05;;;1.70;;
47329;SDS011;33060;50.178;7.570;2023-08-31T15:37:42;8.10;;;1.80;;
47329;SDS011;33060;50.178;7.570;2023-08-31T15:40:09;5.47;;;1.75;;
47329;SDS011;33060;50.178;7.570;2023-08-31T15:42:36;4.70;;;1.80;;
47329;SDS011;33060;50.178;7.570;2023-08-31T15:45:03;4.80;;;1.65;;
47329;SDS011;33060;50.178;7.570;2023-08-31T15:47:30;6.72;;;2.40;;
47329;SDS011;33060;50.178;7.570;2023-08-31T15:49:57;4.00;;;1.98;;
47329;SDS011;33060;50.178;7.570;2023-08-31T15:52:23;4.10;;;1.80;;
47329;SDS011;33060;50.178;7.570;2023-08-31T15:54:50;7.88;;;2.40;;
47329;SDS011;33060;50.178;7.570;2023-08-31T15:57:17;5.28;;;2.13;;
47329;SDS011;33060;50.178;7.570;2023-08-31T15:59:47;5.97;;;2.05;;
47329;SDS011;33060;50.178;7.570;2023-08-31T16:02:17;3.47;;;1.88;;
47329;SDS011;33060;50.178;7.570;2023-08-31T16:04:49;5.07;;;2.15;;
47329;SDS011;33060;50.178;7.570;2023-08-31T16:07:25;4.53;;;2.25;;
47329;SDS011;33060;50.178;7.570;2023-08-31T16:09:52;6.35;;;1.98;;
47329;SDS011;33060;50.178;7.570;2023-08-31T16:12:18;9.43;;;2.70;;
47329;SDS011;33060;50.178;7.570;2023-08-31T16:14:46;6.65;;;2.17;;
47329;SDS011;33060;50.178;7.570;2023-08-31T16:17:17;5.20;;;1.95;;
47329;SDS011;33060;50.178;7.570;2023-08-31T16:19:45;6.65;;;2.10;;
47329;SDS011;33060;50.178;7.570;2023-08-31T16:22:12;5.35;;;2.47;;
47329;SDS011;33060;50.178;7.570;2023-08-31T16:24:39;6.65;;;2.38;;
47329;SDS011;33060;50.178;7.570;2023-08-31T16:27:06;6.13;;;1.77;;
47329;SDS011;33060;50.178;7.570;2023-08-31T16:29:32;4.57;;;2.10;;
47329;SDS011;33060;50.178;7.570;2023-08-31T16:31:59;4.35;;;2.13;;
47329;SDS011;33060;50.178;7.570;2023-08-31T16:34:26;7.47;;;2.80;;
47329;SDS011;33060;50.178;7.570;2023-08-31T16:36:52;6.78;;;2.42;;
47329;SDS011;33060;50.178;7.570;2023-08-31T16:39:19;6.63;;;2.30;;
47329;SDS011;33060;50.178;7.570;2023-08-31T16:41:47;4.65;;;2.30;;
47329;SDS011;33060;50.178;7.570;2023-08-31T16:44:17;7.03;;;2.17;;
47329;SDS011;33060;50.178;7.570;2023-08-31T16:46:43;5.47;;;2.40;;
47329;SDS011;33060;50.178;7.570;2023-08-31T16:49:11;6.43;;;2.25;;
47329;SDS011;33060;50.178;7.570;2023-08-31T16:51:38;7.68;;;2.55;;
47329;SDS011;33060;50.178;7.570;2023-08-31T16:54:06;6.05;;;2.42;;